Time;durP1;ratioP1;P1;durP2;ratioP2;P2;SDS_P1;SDS_P2;PMS_P1;PMS_P2;Temp;Humidity;BMP_temperature;BMP_pressure;BME280_temperature;BME280_humidity;BME280_pressure;Samples;Min_cycle;Max_cycle;Signal;HPM_P1;HPM_P2
2021/05/29 00:01:05;;;;;;;5.85;0.90;;;;;;;;;;5010546;28;20026;-69
2021/05/29 00:03:32;;;;;;;6.03;0.88;;;;;;;;;;5006449;28;20040;-71
2021/05/29 00:06:00;;;;;;;4.57;0.80;;;;;;;;;;5008877;28;20057;-71
2021/05/29 00:08:27;;;;;;;3.90;0.70;;;;;;;;;;5009186;28;20068;-71
2021/05/29 00:10:56;;;;;;;4.97;0.85;;;;;;;;;;5021250;28;20071;-71
2021/05/29 00:13:24;;;;;;;5.30;0.70;;;;;;;;;;5007944;28;20084;-71
2021/05/29 00:15:52;;;;;;;2.65;0.63;;;;;;;;;;5013840;28;20038;-71
2021/05/29 00:18:20;;;;;;;4.18;0.80;;;;;;;;;;5005999;28;20060;-71
2021/05/29 00:20:47;;;;;;;4.72;0.77;;;;;;;;;;5009833;28;20033;-71
2021/05/29 00:23:14;;;;;;;3.92;0.52;;;;;;;;;;5008436;28;20030;-71
2021/05/29 00:25:44;;;;;;;5.70;0.60;;;;;;;;;;5011654;28;20104;-71
2021/05/29 00:28:13;;;;;;;3.80;0.60;;;;;;;;;;5009751;28;20049;-72
2021/05/29 00:30:41;;;;;;;6.22;0.80;;;;;;;;;;5012018;28;20025;-71
2021/05/29 00:33:08;;;;;;;3.45;0.50;;;;;;;;;;5010109;28;20030;-71
2021/05/29 00:35:36;;;;;;;6.18;0.80;;;;;;;;;;5011479;28;20116;-71
2021/05/29 00:38:04;;;;;;;6.20;1.20;;;;;;;;;;5007817;28;20030;-71
2021/05/29 00:40:31;;;;;;;5.00;0.60;;;;;;;;;;5005290;28;20037;-71
2021/05/29 00:42:58;;;;;;;4.45;0.60;;;;;;;;;;5009704;28;20209;-71
2021/05/29 00:45:27;;;;;;;7.95;0.90;;;;;;;;;;5011789;28;20014;-72
2021/05/29 00:47:54;;;;;;;9.40;0.98;;;;;;;;;;5009650;28;20018;-71
2021/05/29 00:50:21;;;;;;;10.27;1.92;;;;;;;;;;5011861;28;20086;-71
2021/05/29 00:52:48;;;;;;;7.40;1.10;;;;;;;;;;5010893;28;20025;-71
2021/05/29 00:55:16;;;;;;;8.55;1.25;;;;;;;;;;5025997;28;20372;-72
2021/05/29 00:57:48;;;;;;;4.28;0.70;;;;;;;;;;5008372;28;20479;-71
2021/05/29 01:00:17;;;;;;;7.93;1.00;;;;;;;;;;5012274;28;20057;-71
2021/05/29 01:02:44;;;;;;;7.90;0.80;;;;;;;;;;5010129;28;20068;-71
2021/05/29 01:05:12;;;;;;;6.55;1.00;;;;;;;;;;5011910;28;20379;-71
2021/05/29 01:07:40;;;;;;;8.20;1.10;;;;;;;;;;5009891;28;20026;-71
2021/05/29 01:10:08;;;;;;;6.95;1.05;;;;;;;;;;5011056;28;20084;-71
2021/05/29 01:12:35;;;;;;;9.50;1.70;;;;;;;;;;5009315;28;20121;-71
2021/05/29 01:15:06;;;;;;;10.45;0.80;;;;;;;;;;5015260;28;20022;-71
2021/05/29 01:17:33;;;;;;;6.15;0.80;;;;;;;;;;5011675;28;20049;-71
2021/05/29 01:20:01;;;;;;;11.60;1.55;;;;;;;;;;5008548;28;20634;-71
2021/05/29 01:22:42;;;;;;;4.28;0.85;;;;;;;;;;5009150;28;20093;-71
2021/05/29 01:25:31;;;;;;;7.15;1.35;;;;;;;;;;5009718;28;20065;-71
2021/05/29 01:28:27;;;;;;;7.53;1.38;;;;;;;;;;5005426;28;20021;-73
2021/05/29 01:30:58;;;;;;;6.25;0.98;;;;;;;;;;5013519;28;20034;-70
2021/05/29 01:33:29;;;;;;;5.40;1.65;;;;;;;;;;5004143;28;20041;-71
2021/05/29 01:36:01;;;;;;;7.47;0.77;;;;;;;;;;5011582;28;20034;-71
2021/05/29 01:38:29;;;;;;;8.80;1.65;;;;;;;;;;5009798;28;20018;-70
2021/05/29 01:41:07;;;;;;;5.90;1.27;;;;;;;;;;5014126;28;20113;-71
2021/05/29 01:43:38;;;;;;;5.63;1.27;;;;;;;;;;5008167;28;20049;-71
2021/05/29 01:46:09;;;;;;;9.48;1.23;;;;;;;;;;5007152;28;20030;-71
2021/05/29 01:48:43;;;;;;;4.57;0.68;;;;;;;;;;5010385;28;20022;-72
2021/05/29 01:51:11;;;;;;;5.05;1.08;;;;;;;;;;5005995;28;20075;-72
2021/05/29 01:53:38;;;;;;;5.82;0.90;;;;;;;;;;5009099;28;20014;-71
2021/05/29 01:56:06;;;;;;;12.70;1.88;;;;;;;;;;5018119;28;20084;-71
2021/05/29 01:58:33;;;;;;;10.10;1.25;;;;;;;;;;5012205;28;20052;-71
2021/05/29 02:01:01;;;;;;;8.20;1.25;;;;;;;;;;5011600;28;20075;-71
2021/05/29 02:03:28;;;;;;;7.40;0.88;;;;;;;;;;5010457;28;20391;-71
2021/05/29 02:05:55;;;;;;;4.28;0.75;;;;;;;;;;5014995;28;20026;-72
2021/05/29 02:08:22;;;;;;;5.10;0.93;;;;;;;;;;5005655;28;20519;-71
2021/05/29 02:10:50;;;;;;;6.20;0.63;;;;;;;;;;5032779;28;20025;-71
2021/05/29 02:13:30;;;;;;;11.73;1.92;;;;;;;;;;5014340;28;20486;-71
2021/05/29 02:15:58;;;;;;;9.02;0.90;;;;;;;;;;5003850;28;20552;-71
2021/05/29 02:18:25;;;;;;;5.72;1.23;;;;;;;;;;5008481;28;20033;-71
2021/05/29 02:21:01;;;;;;;5.68;0.95;;;;;;;;;;5014684;28;20478;-72
2021/05/29 02:23:34;;;;;;;8.00;1.52;;;;;;;;;;5012723;28;20489;-71
2021/05/29 02:26:03;;;;;;;5.63;0.80;;;;;;;;;;5011969;28;20120;-72
2021/05/29 02:28:31;;;;;;;9.50;1.65;;;;;;;;;;5012404;28;20022;-71
2021/05/29 02:30:59;;;;;;;6.60;1.00;;;;;;;;;;5014245;28;20033;-72
2021/05/29 02:33:27;;;;;;;10.30;1.88;;;;;;;;;;4995985;28;20026;-72
2021/05/29 02:35:54;;;;;;;6.78;1.13;;;;;;;;;;5020353;28;20041;-71
2021/05/29 02:38:22;;;;;;;6.97;1.85;;;;;;;;;;5012090;28;20052;-71
2021/05/29 02:40:49;;;;;;;9.10;0.93;;;;;;;;;;5006110;28;20022;-71
2021/05/29 02:43:16;;;;;;;4.40;0.80;;;;;;;;;;5008868;28;20042;-71
2021/05/29 02:45:43;;;;;;;4.30;0.65;;;;;;;;;;4994167;28;20461;-72
2021/05/29 02:48:11;;;;;;;6.15;0.90;;;;;;;;;;5006271;28;20029;-71
2021/05/29 02:50:39;;;;;;;5.72;0.85;;;;;;;;;;5010618;28;20030;-71
2021/05/29 02:53:07;;;;;;;9.15;1.27;;;;;;;;;;5012059;28;20030;-71
2021/05/29 02:55:35;;;;;;;8.70;1.13;;;;;;;;;;5013957;28;20104;-71
2021/05/29 02:58:02;;;;;;;6.18;1.20;;;;;;;;;;5011597;28;20030;-72
2021/05/29 03:00:39;;;;;;;7.18;0.90;;;;;;;;;;5006778;28;20014;-71
2021/05/29 03:03:07;;;;;;;7.32;1.30;;;;;;;;;;5009925;28;20026;-71
2021/05/29 03:05:45;;;;;;;10.07;1.48;;;;;;;;;;5013404;28;20573;-72
2021/05/29 03:08:13;;;;;;;6.10;1.50;;;;;;;;;;5011026;28;20036;-71
2021/05/29 03:10:45;;;;;;;4.35;1.00;;;;;;;;;;5014415;28;20056;-71
2021/05/29 03:13:12;;;;;;;9.13;1.10;;;;;;;;;;5006495;28;20018;-71
2021/05/29 03:15:40;;;;;;;5.13;0.75;;;;;;;;;;5010678;28;20034;-71
2021/05/29 03:18:07;;;;;;;8.18;1.15;;;;;;;;;;5011531;28;20410;-71
2021/05/29 03:20:36;;;;;;;6.57;1.00;;;;;;;;;;5013125;28;20025;-71
2021/05/29 03:23:04;;;;;;;9.75;1.58;;;;;;;;;;5008560;28;20548;-71
2021/05/29 03:25:31;;;;;;;10.40;1.25;;;;;;;;;;5008918;28;20041;-71
2021/05/29 03:27:58;;;;;;;5.45;1.20;;;;;;;;;;5007857;28;20041;-71
2021/05/29 03:30:29;;;;;;;5.15;0.77;;;;;;;;;;5011808;28;20101;-71
2021/05/29 03:32:57;;;;;;;6.78;1.05;;;;;;;;;;5010590;28;20030;-71
2021/05/29 03:35:25;;;;;;;6.72;0.88;;;;;;;;;;5012798;28;20073;-71
2021/05/29 03:37:52;;;;;;;6.32;0.73;;;;;;;;;;5008980;28;20060;-71
2021/05/29 03:40:19;;;;;;;6.00;1.30;;;;;;;;;;5012711;28;20026;-71
2021/05/29 03:42:46;;;;;;;6.53;0.95;;;;;;;;;;5010737;28;20030;-71
2021/05/29 03:45:15;;;;;;;7.63;0.80;;;;;;;;;;5012844;28;20018;-71
2021/05/29 03:47:43;;;;;;;6.43;1.10;;;;;;;;;;5010809;28;20022;-71
2021/05/29 03:50:11;;;;;;;7.40;0.90;;;;;;;;;;5011223;28;20026;-72
2021/05/29 03:52:41;;;;;;;6.75;0.90;;;;;;;;;;5010368;28;20033;-71
2021/05/29 03:55:08;;;;;;;5.80;1.35;;;;;;;;;;5005985;28;20061;-71
2021/05/29 03:57:36;;;;;;;5.88;1.05;;;;;;;;;;5007495;28;20041;-72
2021/05/29 04:00:05;;;;;;;5.63;0.80;;;;;;;;;;5012561;28;20017;-71
2021/05/29 04:02:32;;;;;;;5.43;0.98;;;;;;;;;;5008938;28;20024;-71
2021/05/29 04:04:59;;;;;;;4.55;0.90;;;;;;;;;;5005068;28;20117;-72
2021/05/29 04:07:26;;;;;;;4.20;1.13;;;;;;;;;;5006066;28;20029;-71
2021/05/29 04:09:53;;;;;;;7.70;2.00;;;;;;;;;;5011013;28;20030;-71
2021/05/29 04:12:20;;;;;;;8.48;1.05;;;;;;;;;;5010487;28;20040;-71
2021/05/29 04:14:48;;;;;;;6.07;1.15;;;;;;;;;;5009917;28;20030;-72
2021/05/29 04:17:15;;;;;;;2.72;0.73;;;;;;;;;;5009740;28;20037;-72
2021/05/29 04:19:42;;;;;;;2.90;0.63;;;;;;;;;;5012306;28;20033;-71
2021/05/29 04:22:09;;;;;;;8.48;1.83;;;;;;;;;;5010095;28;20462;-72
2021/05/29 04:24:37;;;;;;;9.25;0.90;;;;;;;;;;5008359;28;20038;-71
2021/05/29 04:27:05;;;;;;;5.15;0.60;;;;;;;;;;5006507;28;20387;-72
2021/05/29 04:29:32;;;;;;;4.18;1.42;;;;;;;;;;5012169;28;20475;-72
2021/05/29 04:32:00;;;;;;;4.97;1.02;;;;;;;;;;5004540;28;20064;-71
2021/05/29 04:34:27;;;;;;;5.70;0.70;;;;;;;;;;4994068;28;20101;-72
2021/05/29 04:36:54;;;;;;;6.32;0.85;;;;;;;;;;4993871;28;20065;-71
2021/05/29 04:39:21;;;;;;;7.93;0.95;;;;;;;;;;5011179;28;20030;-71
2021/05/29 04:41:52;;;;;;;3.92;0.60;;;;;;;;;;5006315;28;20050;-71
2021/05/29 04:44:20;;;;;;;8.20;1.05;;;;;;;;;;5011865;28;20079;-71
2021/05/29 04:46:53;;;;;;;4.68;0.70;;;;;;;;;;5009085;28;20030;-72
2021/05/29 04:49:21;;;;;;;6.70;1.02;;;;;;;;;;5011829;28;20042;-72
2021/05/29 04:51:49;;;;;;;8.73;3.05;;;;;;;;;;4999435;28;20087;-71
2021/05/29 04:54:16;;;;;;;8.68;1.50;;;;;;;;;;5012260;28;20122;-72
2021/05/29 04:56:43;;;;;;;6.60;1.00;;;;;;;;;;5009358;28;20026;-71
2021/05/29 04:59:10;;;;;;;5.32;1.00;;;;;;;;;;5011760;28;20014;-72
2021/05/29 05:01:37;;;;;;;4.85;0.90;;;;;;;;;;5009614;28;20018;-71
2021/05/29 05:04:05;;;;;;;4.53;0.88;;;;;;;;;;4992213;28;20498;-71
2021/05/29 05:06:32;;;;;;;5.55;0.70;;;;;;;;;;4998571;28;20030;-71
2021/05/29 05:08:59;;;;;;;7.63;0.85;;;;;;;;;;4993375;28;20022;-71
2021/05/29 05:11:26;;;;;;;7.53;0.68;;;;;;;;;;4993884;28;20495;-72
2021/05/29 05:13:53;;;;;;;5.40;0.85;;;;;;;;;;5008228;28;20053;-72
2021/05/29 05:16:21;;;;;;;3.58;0.63;;;;;;;;;;5011951;28;20034;-72
2021/05/29 05:18:48;;;;;;;4.60;0.60;;;;;;;;;;5008020;28;20109;-71
2021/05/29 05:21:15;;;;;;;5.70;1.00;;;;;;;;;;5011688;28;20034;-71
2021/05/29 05:23:42;;;;;;;6.03;1.35;;;;;;;;;;5007532;28;20041;-71
2021/05/29 05:26:09;;;;;;;7.65;0.73;;;;;;;;;;5011828;28;20076;-71
2021/05/29 05:28:37;;;;;;;4.97;0.80;;;;;;;;;;5002401;28;20102;-71
2021/05/29 05:31:05;;;;;;;2.10;1.00;;;;;;;;;;4992431;28;20026;-72
2021/05/29 05:33:37;;;;;;;5.38;0.60;;;;;;;;;;5007211;28;20034;-72
2021/05/29 05:36:07;;;;;;;3.67;0.95;;;;;;;;;;5011495;28;20030;-71
2021/05/29 05:38:35;;;;;;;4.30;0.75;;;;;;;;;;5009742;28;20145;-71
2021/05/29 05:41:02;;;;;;;6.43;1.30;;;;;;;;;;5002139;28;20030;-71
2021/05/29 05:43:29;;;;;;;7.65;0.90;;;;;;;;;;5006209;28;20129;-72
2021/05/29 05:45:56;;;;;;;4.50;0.55;;;;;;;;;;5007175;28;20497;-71
2021/05/29 05:48:23;;;;;;;3.03;0.47;;;;;;;;;;5008961;28;20026;-71
2021/05/29 05:50:55;;;;;;;6.22;1.05;;;;;;;;;;5010039;28;20462;-71
2021/05/29 05:53:22;;;;;;;5.45;1.23;;;;;;;;;;5008834;28;20042;-71
2021/05/29 05:56:01;;;;;;;4.97;1.05;;;;;;;;;;5005413;28;20105;-71
2021/05/29 05:58:30;;;;;;;6.88;1.15;;;;;;;;;;5006797;28;20475;-71
2021/05/29 06:00:57;;;;;;;5.80;1.38;;;;;;;;;;5013077;28;20026;-70
2021/05/29 06:03:24;;;;;;;7.05;1.30;;;;;;;;;;5010840;28;20518;-71
2021/05/29 06:05:51;;;;;;;6.63;1.23;;;;;;;;;;5010141;28;20116;-71
2021/05/29 06:08:20;;;;;;;7.95;1.15;;;;;;;;;;5011762;28;20058;-71
2021/05/29 06:10:50;;;;;;;7.88;1.08;;;;;;;;;;5014363;28;20034;-70
2021/05/29 06:19:14;;;;;;;7.53;0.82;;;;;;;;;;5013628;28;20045;-71
2021/05/29 06:21:46;;;;;;;3.97;0.88;;;;;;;;;;5012509;28;20470;-71
2021/05/29 06:24:14;;;;;;;3.45;0.52;;;;;;;;;;4995183;28;20030;-71
2021/05/29 06:26:42;;;;;;;6.80;0.60;;;;;;;;;;5002539;28;20393;-71
2021/05/29 06:29:09;;;;;;;5.97;0.73;;;;;;;;;;5008708;28;20022;-71
2021/05/29 06:31:36;;;;;;;3.03;0.52;;;;;;;;;;5010686;28;20025;-71
2021/05/29 06:34:03;;;;;;;12.48;1.02;;;;;;;;;;5007493;28;20405;-71
2021/05/29 06:36:31;;;;;;;6.18;0.90;;;;;;;;;;5009493;28;20473;-71
2021/05/29 06:38:58;;;;;;;5.10;0.68;;;;;;;;;;5007288;28;20474;-71
2021/05/29 06:41:26;;;;;;;4.35;0.70;;;;;;;;;;5013881;28;20383;-71
2021/05/29 06:43:53;;;;;;;4.82;0.70;;;;;;;;;;5013063;28;20049;-71
2021/05/29 06:46:20;;;;;;;5.13;0.85;;;;;;;;;;5012194;28;20517;-71
2021/05/29 06:48:47;;;;;;;2.88;0.90;;;;;;;;;;5012257;28;20038;-71
2021/05/29 06:51:24;;;;;;;6.38;0.73;;;;;;;;;;5013947;28;20022;-71
2021/05/29 06:53:53;;;;;;;7.45;0.50;;;;;;;;;;5008475;28;20137;-71
2021/05/29 06:59:05;;;;;;;6.75;0.70;;;;;;;;;;5008800;28;20115;-71
2021/05/29 07:01:33;;;;;;;6.03;1.10;;;;;;;;;;5009316;28;20053;-71
2021/05/29 07:04:00;;;;;;;9.10;0.70;;;;;;;;;;5010532;28;20068;-71
2021/05/29 07:06:27;;;;;;;5.57;0.80;;;;;;;;;;5009892;28;20049;-71
2021/05/29 07:08:56;;;;;;;4.72;0.70;;;;;;;;;;5007146;28;20029;-71
2021/05/29 07:11:24;;;;;;;2.53;0.70;;;;;;;;;;5009889;28;20110;-71
2021/05/29 07:13:51;;;;;;;3.53;0.70;;;;;;;;;;5007079;28;20028;-71
2021/05/29 07:16:19;;;;;;;6.15;1.08;;;;;;;;;;5000559;28;20042;-71
2021/05/29 07:18:48;;;;;;;4.57;1.17;;;;;;;;;;5008539;28;20018;-71
2021/05/29 07:21:16;;;;;;;2.88;0.63;;;;;;;;;;5009544;28;20394;-71
2021/05/29 07:23:44;;;;;;;6.53;0.88;;;;;;;;;;5006821;28;20025;-71
2021/05/29 07:26:11;;;;;;;4.82;0.85;;;;;;;;;;5011557;28;20061;-70
2021/05/29 07:28:38;;;;;;;4.75;1.05;;;;;;;;;;5009922;28;20026;-71
2021/05/29 07:31:06;;;;;;;5.88;2.60;;;;;;;;;;5008110;28;20025;-71
2021/05/29 07:33:33;;;;;;;7.00;2.30;;;;;;;;;;5009915;28;20101;-72
2021/05/29 07:36:00;;;;;;;5.78;1.65;;;;;;;;;;5013329;28;20022;-71
2021/05/29 07:38:27;;;;;;;5.68;1.75;;;;;;;;;;5011734;28;20034;-71
2021/05/29 07:40:54;;;;;;;5.35;1.77;;;;;;;;;;4995918;28;20038;-71
2021/05/29 07:43:22;;;;;;;6.43;2.15;;;;;;;;;;5007065;28;20511;-71
2021/05/29 07:45:50;;;;;;;3.40;0.90;;;;;;;;;;5006990;28;20029;-71
2021/05/29 07:48:17;;;;;;;5.05;0.82;;;;;;;;;;5009828;28;20022;-71
2021/05/29 07:50:57;;;;;;;3.75;1.00;;;;;;;;;;5013008;28;20022;-72
2021/05/29 07:53:25;;;;;;;2.70;0.65;;;;;;;;;;5010645;28;20026;-71
2021/05/29 07:55:53;;;;;;;6.15;0.73;;;;;;;;;;5012721;28;20049;-71
2021/05/29 07:58:20;;;;;;;4.57;0.88;;;;;;;;;;5010786;28;20036;-71
2021/05/29 08:00:51;;;;;;;5.50;1.13;;;;;;;;;;5012812;28;20388;-71
2021/05/29 08:03:20;;;;;;;10.15;1.40;;;;;;;;;;5001208;28;20022;-72
2021/05/29 08:05:50;;;;;;;4.78;1.42;;;;;;;;;;4993069;28;20037;-71
2021/05/29 08:08:17;;;;;;;7.57;2.42;;;;;;;;;;5006342;28;20052;-71
2021/05/29 08:10:46;;;;;;;7.85;2.20;;;;;;;;;;5012875;28;20030;-71
2021/05/29 08:13:13;;;;;;;11.32;5.70;;;;;;;;;;5011026;28;20429;-71
2021/05/29 08:15:41;;;;;;;14.00;6.00;;;;;;;;;;5010773;28;20041;-71
2021/05/29 08:18:08;;;;;;;21.58;12.95;;;;;;;;;;5010205;28;20026;-72
2021/05/29 08:20:36;;;;;;;13.55;6.65;;;;;;;;;;5010900;28;20084;-71
2021/05/29 08:23:04;;;;;;;6.47;3.15;;;;;;;;;;5007563;28;20080;-71
2021/05/29 08:25:32;;;;;;;7.03;1.48;;;;;;;;;;5012579;28;20054;-71
2021/05/29 08:27:59;;;;;;;5.15;2.05;;;;;;;;;;5010615;28;20050;-71
2021/05/29 08:30:26;;;;;;;12.55;5.40;;;;;;;;;;5012764;28;20382;-71
2021/05/29 08:32:54;;;;;;;7.68;2.63;;;;;;;;;;5010936;28;20030;-72
2021/05/29 08:35:21;;;;;;;10.90;4.03;;;;;;;;;;5006499;28;20084;-71
2021/05/29 08:37:48;;;;;;;16.45;8.98;;;;;;;;;;5007312;28;20061;-70
2021/05/29 08:40:17;;;;;;;15.82;9.85;;;;;;;;;;5012492;28;20100;-71
2021/05/29 08:42:44;;;;;;;12.15;3.83;;;;;;;;;;5004902;28;20022;-70
2021/05/29 08:45:12;;;;;;;21.73;15.45;;;;;;;;;;5007638;28;20030;-70
2021/05/29 08:47:39;;;;;;;15.32;4.82;;;;;;;;;;5000035;28;20026;-70
2021/05/29 08:50:07;;;;;;;17.02;8.85;;;;;;;;;;5011778;28;20057;-70
2021/05/29 08:52:37;;;;;;;10.30;5.53;;;;;;;;;;5009665;28;20026;-70
2021/05/29 08:55:08;;;;;;;18.55;8.60;;;;;;;;;;5005991;28;20081;-70
2021/05/29 08:57:36;;;;;;;8.52;2.00;;;;;;;;;;5009105;28;20038;-70
2021/05/29 09:00:06;;;;;;;6.70;2.78;;;;;;;;;;5007260;28;20022;-70
2021/05/29 09:02:33;;;;;;;14.10;7.78;;;;;;;;;;5010447;28;20109;-70
2021/05/29 09:05:02;;;;;;;7.82;1.35;;;;;;;;;;5012222;28;20483;-70
2021/05/29 09:07:29;;;;;;;5.05;1.95;;;;;;;;;;5009433;28;20026;-70
2021/05/29 09:10:15;;;;;;;10.27;3.45;;;;;;;;;;5011363;28;20029;-70
2021/05/29 09:13:02;;;;;;;4.90;2.20;;;;;;;;;;5010311;28;20057;-69
2021/05/29 09:15:48;;;;;;;5.22;2.25;;;;;;;;;;5009278;28;20367;-70
2021/05/29 09:18:27;;;;;;;9.75;2.20;;;;;;;;;;5010272;28;20029;-69
2021/05/29 09:21:15;;;;;;;5.80;2.60;;;;;;;;;;5012205;28;20065;-70
2021/05/29 09:23:49;;;;;;;10.13;2.20;;;;;;;;;;5008623;28;20114;-70
2021/05/29 09:26:17;;;;;;;4.88;1.65;;;;;;;;;;5011850;28;20045;-70
2021/05/29 09:28:44;;;;;;;6.00;2.00;;;;;;;;;;5007283;28;20034;-70
2021/05/29 09:31:16;;;;;;;7.68;1.65;;;;;;;;;;5012044;28;20182;-70
2021/05/29 09:33:44;;;;;;;6.60;1.75;;;;;;;;;;5009858;28;20022;-70
2021/05/29 09:36:12;;;;;;;8.48;2.20;;;;;;;;;;5012462;28;20076;-70
2021/05/29 09:38:46;;;;;;;4.97;1.48;;;;;;;;;;5013122;28;20021;-72
2021/05/29 09:41:13;;;;;;;;;;;;;;;;;;5015916;28;20030;-70
2021/05/29 09:43:58;;;;;;;6.10;2.00;;;;;;;;;;5011869;28;20007;-70
2021/05/29 09:46:27;;;;;;;3.58;1.73;;;;;;;;;;5015670;28;20482;-70
2021/05/29 09:48:55;;;;;;;5.57;1.67;;;;;;;;;;5014059;28;20030;-71
2021/05/29 09:51:23;;;;;;;4.68;1.63;;;;;;;;;;5015338;28;20059;-70
2021/05/29 09:53:54;;;;;;;4.10;1.13;;;;;;;;;;5013172;28;20076;-71
2021/05/29 09:56:25;;;;;;;4.80;1.67;;;;;;;;;;5019114;28;20071;-72
2021/05/29 09:58:59;;;;;;;6.10;1.45;;;;;;;;;;5013245;28;20044;-70
2021/05/29 10:01:37;;;;;;;7.03;2.25;;;;;;;;;;5013846;28;20212;-70
2021/05/29 10:04:05;;;;;;;6.68;2.05;;;;;;;;;;5014719;28;20022;-71
2021/05/29 10:06:32;;;;;;;5.15;1.42;;;;;;;;;;5013768;28;20033;-70
2021/05/29 10:09:00;;;;;;;3.47;1.30;;;;;;;;;;5014481;28;20026;-70
2021/05/29 10:11:28;;;;;;;7.50;1.30;;;;;;;;;;5013420;28;20053;-70
2021/05/29 10:13:55;;;;;;;6.03;1.45;;;;;;;;;;5007626;28;20076;-70
2021/05/29 10:16:24;;;;;;;6.28;2.47;;;;;;;;;;5011601;28;20069;-70
2021/05/29 10:18:54;;;;;;;4.03;1.60;;;;;;;;;;5011589;28;20044;-70
2021/05/29 10:21:22;;;;;;;7.53;1.92;;;;;;;;;;5014584;28;20479;-71
2021/05/29 10:23:50;;;;;;;6.47;1.77;;;;;;;;;;5011913;28;20042;-71
2021/05/29 10:26:17;;;;;;;7.40;1.35;;;;;;;;;;5014435;28;20038;-70
2021/05/29 10:28:48;;;;;;;5.90;1.45;;;;;;;;;;5012370;28;20087;-70
2021/05/29 10:31:15;;;;;;;6.20;1.60;;;;;;;;;;5005652;28;20026;-70
2021/05/29 10:33:46;;;;;;;4.90;1.30;;;;;;;;;;5011139;28;20121;-71
2021/05/29 10:36:32;;;;;;;5.28;1.08;;;;;;;;;;5013050;28;20456;-70
2021/05/29 10:38:59;;;;;;;6.57;1.48;;;;;;;;;;5013621;28;20064;-70
2021/05/29 10:42:03;;;;;;;7.95;1.38;;;;;;;;;;5013463;28;20356;-70
2021/05/29 10:44:35;;;;;;;5.13;1.25;;;;;;;;;;4972720;28;20065;-70
2021/05/29 10:47:11;;;;;;;5.88;1.92;;;;;;;;;;4988746;28;20097;-70
2021/05/29 10:49:51;;;;;;;8.02;1.67;;;;;;;;;;4989963;28;20102;-71
2021/05/29 10:52:34;;;;;;;7.15;1.38;;;;;;;;;;4990700;28;20029;-70
2021/05/29 10:55:10;;;;;;;5.90;1.30;;;;;;;;;;4994270;28;20026;-70
2021/05/29 10:57:55;;;;;;;5.05;0.98;;;;;;;;;;4991866;28;20030;-70
2021/05/29 11:00:38;;;;;;;2.53;1.27;;;;;;;;;;4993353;28;20026;-69
2021/05/29 11:03:21;;;;;;;8.15;1.45;;;;;;;;;;4991936;28;20109;-70
2021/05/29 11:05:49;;;;;;;10.30;1.38;;;;;;;;;;4992508;28;20049;-70
2021/05/29 11:08:34;;;;;;;4.68;1.35;;;;;;;;;;4991588;28;20486;-70
2021/05/29 11:11:01;;;;;;;4.75;1.50;;;;;;;;;;4974136;28;20027;-71
2021/05/29 11:13:51;;;;;;;8.35;1.42;;;;;;;;;;4988161;28;20470;-70
2021/05/29 11:16:18;;;;;;;6.35;1.23;;;;;;;;;;4988552;28;20491;-70
2021/05/29 11:19:04;;;;;;;4.00;0.90;;;;;;;;;;4993455;28;20065;-71
2021/05/29 11:21:31;;;;;;;5.03;0.90;;;;;;;;;;4993084;28;20119;-70
2021/05/29 11:23:58;;;;;;;5.38;1.30;;;;;;;;;;4992885;28;20023;-70
2021/05/29 11:26:26;;;;;;;6.45;1.45;;;;;;;;;;4976716;28;20465;-71
2021/05/29 11:28:53;;;;;;;9.07;1.63;;;;;;;;;;4992093;28;20499;-71
2021/05/29 11:31:21;;;;;;;3.67;1.40;;;;;;;;;;4994184;28;20089;-70
2021/05/29 11:33:55;;;;;;;4.38;1.45;;;;;;;;;;4992249;28;20045;-71
2021/05/29 11:36:32;;;;;;;4.25;1.30;;;;;;;;;;4994366;28;20077;-70
2021/05/29 11:39:28;;;;;;;7.43;1.50;;;;;;;;;;4992508;28;20044;-70
2021/05/29 11:42:00;;;;;;;8.15;1.60;;;;;;;;;;4983897;28;20058;-70
2021/05/29 11:44:29;;;;;;;4.60;1.42;;;;;;;;;;5002623;28;20050;-70
2021/05/29 11:46:56;;;;;;;6.20;2.17;;;;;;;;;;5008601;28;20026;-70
2021/05/29 11:49:24;;;;;;;4.43;1.42;;;;;;;;;;5003836;28;20030;-69
2021/05/29 11:52:00;;;;;;;2.75;1.20;;;;;;;;;;5009398;28;20101;-71
2021/05/29 11:54:33;;;;;;;5.70;1.70;;;;;;;;;;5008903;28;20119;-70
2021/05/29 11:57:00;;;;;;;3.20;1.02;;;;;;;;;;5007369;28;20121;-70
2021/05/29 11:59:27;;;;;;;5.05;1.60;;;;;;;;;;5007137;28;23905;-70
2021/05/29 12:01:55;;;;;;;2.83;1.20;;;;;;;;;;5007516;28;20113;-70
2021/05/29 12:04:23;;;;;;;6.32;1.67;;;;;;;;;;5007306;28;20017;-71
2021/05/29 12:06:51;;;;;;;4.75;1.40;;;;;;;;;;5006027;28;20037;-70
2021/05/29 12:09:27;;;;;;;8.10;1.88;;;;;;;;;;5006826;28;20014;-70
2021/05/29 12:12:01;;;;;;;4.28;0.98;;;;;;;;;;5004750;28;20435;-70
2021/05/29 12:14:39;;;;;;;7.22;1.50;;;;;;;;;;5008011;28;20159;-71
2021/05/29 12:17:07;;;;;;;4.97;1.23;;;;;;;;;;5007942;28;20037;-71
2021/05/29 12:19:37;;;;;;;2.75;0.90;;;;;;;;;;5006910;28;20014;-71
2021/05/29 12:22:07;;;;;;;4.88;1.42;;;;;;;;;;5010211;28;20086;-71
2021/05/29 12:24:39;;;;;;;5.85;0.93;;;;;;;;;;5011228;28;20128;-71
2021/05/29 12:27:07;;;;;;;3.22;0.80;;;;;;;;;;5005491;28;20026;-71
2021/05/29 12:29:35;;;;;;;9.60;1.60;;;;;;;;;;5006998;28;20757;-71
2021/05/29 12:32:02;;;;;;;7.32;1.60;;;;;;;;;;5004735;28;20109;-70
2021/05/29 12:34:31;;;;;;;5.28;1.20;;;;;;;;;;5010445;28;20395;-71
2021/05/29 12:37:04;;;;;;;3.97;1.10;;;;;;;;;;5007837;28;20025;-71
2021/05/29 12:39:46;;;;;;;7.55;1.17;;;;;;;;;;5006013;28;20021;-72
2021/05/29 12:42:23;;;;;;;4.75;1.38;;;;;;;;;;5006800;28;20084;-71
2021/05/29 12:44:52;;;;;;;5.30;1.00;;;;;;;;;;5010390;28;20069;-71
2021/05/29 12:47:20;;;;;;;7.53;1.20;;;;;;;;;;5009305;28;20054;-69
2021/05/29 12:49:47;;;;;;;4.18;1.08;;;;;;;;;;5010647;28;20030;-72
2021/05/29 12:52:25;;;;;;;4.13;1.05;;;;;;;;;;5008356;28;20464;-72
2021/05/29 12:54:53;;;;;;;4.93;1.40;;;;;;;;;;5010103;28;20022;-71
2021/05/29 12:57:20;;;;;;;4.18;1.40;;;;;;;;;;5009586;28;20065;-72
2021/05/29 12:59:48;;;;;;;5.95;1.02;;;;;;;;;;5009811;28;20026;-71
2021/05/29 13:07:48;;;;;;;7.80;1.05;;;;;;;;;;5007555;28;20044;-72
2021/05/29 13:13:02;;;;;;;5.03;1.10;;;;;;;;;;5011479;28;20031;-70
2021/05/29 13:15:30;;;;;;;4.40;0.90;;;;;;;;;;5010894;28;20471;-71
2021/05/29 13:18:10;;;;;;;4.53;1.10;;;;;;;;;;5006383;28;20038;-70
2021/05/29 13:20:39;;;;;;;3.13;1.00;;;;;;;;;;5010969;28;20018;-70
2021/05/29 13:23:06;;;;;;;2.75;0.93;;;;;;;;;;5012591;28;20101;-70
2021/05/29 13:25:43;;;;;;;2.63;0.65;;;;;;;;;;5013272;28;20374;-70
2021/05/29 13:28:12;;;;;;;3.58;0.93;;;;;;;;;;5011339;28;20038;-71
2021/05/29 13:30:39;;;;;;;4.22;1.25;;;;;;;;;;5014969;28;20538;-70
2021/05/29 13:33:10;;;;;;;4.05;1.00;;;;;;;;;;5012610;28;20026;-71
2021/05/29 13:35:38;;;;;;;4.53;1.05;;;;;;;;;;5011984;28;20026;-71
2021/05/29 13:38:05;;;;;;;5.78;1.00;;;;;;;;;;5010515;28;20049;-70
2021/05/29 13:40:33;;;;;;;2.10;0.77;;;;;;;;;;5012723;28;20021;-71
2021/05/29 13:43:00;;;;;;;5.47;0.90;;;;;;;;;;5011075;28;20397;-70
2021/05/29 13:45:30;;;;;;;2.33;0.70;;;;;;;;;;5012805;28;20026;-71
2021/05/29 13:47:57;;;;;;;6.00;1.20;;;;;;;;;;5010490;28;20101;-70
2021/05/29 13:50:29;;;;;;;4.38;0.93;;;;;;;;;;5013692;28;20014;-69
2021/05/29 13:52:56;;;;;;;3.33;0.68;;;;;;;;;;5011716;28;20061;-70
2021/05/29 13:55:24;;;;;;;5.32;0.95;;;;;;;;;;5009191;28;20036;-70
2021/05/29 13:57:51;;;;;;;3.95;0.75;;;;;;;;;;5008564;28;20113;-69
2021/05/29 14:00:19;;;;;;;4.47;0.73;;;;;;;;;;5011308;28;20395;-70
2021/05/29 14:02:47;;;;;;;5.78;1.67;;;;;;;;;;5011667;28;20041;-70
2021/05/29 14:05:14;;;;;;;6.53;1.65;;;;;;;;;;5012357;28;20034;-70
2021/05/29 14:07:42;;;;;;;5.78;1.60;;;;;;;;;;5011042;28;20025;-70
2021/05/29 14:10:10;;;;;;;7.25;1.92;;;;;;;;;;5013235;28;20022;-70
2021/05/29 14:12:37;;;;;;;5.70;1.17;;;;;;;;;;5011716;28;20053;-71
2021/05/29 14:15:05;;;;;;;2.97;0.93;;;;;;;;;;5009460;28;20025;-70
2021/05/29 14:17:32;;;;;;;5.07;0.98;;;;;;;;;;5009472;28;20030;-70
2021/05/29 14:20:00;;;;;;;7.78;1.13;;;;;;;;;;5011384;28;20023;-70
2021/05/29 14:22:27;;;;;;;3.60;0.80;;;;;;;;;;5009148;28;20478;-71
2021/05/29 14:24:54;;;;;;;3.03;0.80;;;;;;;;;;5005874;28;20065;-70
2021/05/29 14:27:21;;;;;;;4.07;0.80;;;;;;;;;;5010763;28;20076;-71
2021/05/29 14:29:48;;;;;;;4.00;0.80;;;;;;;;;;5010200;28;20034;-71
2021/05/29 14:32:15;;;;;;;3.60;1.15;;;;;;;;;;5010027;28;20026;-70
2021/05/29 14:34:42;;;;;;;3.15;0.70;;;;;;;;;;5011532;28;20041;-70
2021/05/29 14:37:10;;;;;;;2.13;0.70;;;;;;;;;;5011316;28;20026;-71
2021/05/29 14:39:41;;;;;;;5.35;1.20;;;;;;;;;;5012999;28;20041;-70
2021/05/29 14:42:08;;;;;;;4.45;1.45;;;;;;;;;;5007673;28;20455;-71
2021/05/29 14:44:35;;;;;;;4.00;0.98;;;;;;;;;;5011195;28;20038;-70
2021/05/29 14:47:03;;;;;;;4.00;0.85;;;;;;;;;;5010750;28;20478;-70
2021/05/29 14:49:30;;;;;;;4.65;0.63;;;;;;;;;;5011768;28;20088;-71
2021/05/29 14:51:57;;;;;;;5.88;1.17;;;;;;;;;;5009879;28;20029;-71
2021/05/29 14:54:26;;;;;;;4.07;0.85;;;;;;;;;;5011347;28;20463;-71
2021/05/29 14:56:54;;;;;;;4.32;1.00;;;;;;;;;;5011034;28;20172;-71
2021/05/29 14:59:21;;;;;;;4.97;0.95;;;;;;;;;;5012985;28;20022;-71
2021/05/29 15:01:48;;;;;;;3.03;0.88;;;;;;;;;;5006975;28;20035;-70
2021/05/29 15:04:19;;;;;;;5.07;0.70;;;;;;;;;;5011738;28;20144;-71
2021/05/29 15:06:46;;;;;;;7.95;0.73;;;;;;;;;;5008338;28;20045;-70
2021/05/29 15:09:13;;;;;;;5.10;0.82;;;;;;;;;;5011334;28;20026;-71
2021/05/29 15:11:40;;;;;;;5.50;1.20;;;;;;;;;;5009664;28;20092;-71
2021/05/29 15:14:07;;;;;;;6.00;0.98;;;;;;;;;;5010272;28;20033;-71